Latest Weather Observations for Onslow Airport

IDW60801

Issued at 11:33 pm WST Tuesday 27 September 2016 (issued every 30 minutes, with the page automatically refreshed every 10 minutes)

About weather observations | Map of weather stations | Latest weather observations for WA | Other Formats
Station Details ID: 005017 Name: ONSLOW AIRPORT Lat: -21.67 Lon: 115.11 Height: 10.5 m
Data from the previous 72 hours. | See also: Recent months at Onslow Airport
Date/Time
WST
Temp
°C
App
Temp
°C
Dew
Point
°C
Rel
Hum
%
Delta-T
°C
Wind Press
QNH
hPa
Press
MSL
hPa
Rain since
9am
mm
Dir  Spd
km/h
Gust
km/h
Spd
kts
Gust
kts
27/11:30pm 21.9 16.0 7.3 39 7.5 S 28 35 15 19 1013.5 1013.5 0.0
27/11:00pm 22.6 16.4 6.0 34 8.4 SSW 28 37 15 20 1013.5 1013.5 0.0
27/10:30pm 23.3 16.1 4.8 30 9.2 SSW 32 46 17 25 1013.3 1013.3 0.0
27/10:00pm 23.9 16.6 5.3 30 9.4 SSW 33 46 18 25 1013.2 1013.2 0.0
27/09:30pm 24.8 17.2 2.9 24 10.6 SSW 32 41 17 22 1013.1 1013.1 0.0
27/09:00pm 25.5 18.4 1.6 21 11.4 SSW 28 35 15 19 1012.7 1012.7 0.0
27/08:30pm 26.3 19.0 2.3 21 11.6 SSW 30 39 16 21 1012.3 1012.3 0.0
27/08:00pm 26.9 19.0 1.3 19 12.2 SSW 32 43 17 23 1011.9 1011.9 0.0
27/07:30pm 27.7 19.7 0.5 17 12.9 SSW 32 43 17 23 1011.5 1011.5 0.0
27/07:00pm 28.6 20.8 -0.5 15 13.6 SSW 30 44 16 24 1011.0 1011.0 0.0
27/06:30pm 29.2 22.4 0.8 16 13.7 SSW 26 35 14 19 1010.3 1010.3 0.0
27/06:00pm 30.6 23.3 0.1 14 14.7 SSW 28 35 15 19 1009.8 1009.8 0.0
27/05:30pm 31.9 24.1 -1.0 12 15.6 SSW 30 41 16 22 1009.2 1009.2 0.0
27/05:06pm 32.8 27.8 -1.5 11 16.3 SW 15 41 8 22 1008.9 1008.9 0.0
27/05:00pm 31.2 28.3 6.3 21 13.4 W 11 22 6 12 1008.9 1008.9 0.0
27/04:30pm 28.3 24.0 12.2 37 9.4 WNW 26 32 14 17 1008.9 1008.9 0.0
27/04:00pm 29.6 24.7 11.2 32 10.6 WNW 28 35 15 19 1009.2 1009.2 0.0
27/03:30pm 29.8 24.9 11.3 32 10.7 WNW 28 33 15 18 1009.3 1009.3 0.0
27/03:00pm 31.3 24.9 7.1 22 13.2 WNW 30 35 16 19 1009.6 1009.6 0.0
27/02:30pm 30.4 23.5 6.3 22 12.8 WNW 32 39 17 21 1009.8 1009.8 0.0
27/02:00pm 31.2 24.7 4.9 19 13.8 WNW 28 35 15 19 1010.1 1010.1 0.0
27/01:30pm 32.1 25.0 1.3 14 15.2 NNW 28 33 15 18 1010.3 1010.3 0.0
27/01:00pm 32.5 25.9 -3.0 10 16.4 NW 22 26 12 14 1010.6 1010.6 0.0
27/12:30pm 33.6 30.0 0.3 12 16.4 SSW 9 20 5 11 1011.2 1011.2 0.0
27/12:00pm 33.7 28.8 -3.5 9 17.2 SSE 13 19 7 10 1011.6 1011.6 0.0
27/11:30am 33.2 27.5 -3.9 9 17.0 SE 17 22 9 12 1012.0 1012.0 0.0
27/11:00am 32.9 26.2 -4.1 9 16.8 ESE 22 33 12 18 1012.3 1012.3 0.0
27/10:30am 32.1 25.7 -2.0 11 16.0 SE 22 30 12 16 1012.5 1012.5 0.0
27/10:00am 30.5 23.4 -1.0 13 14.8 SE 26 32 14 17 1012.8 1012.8 0.0
27/09:30am 29.2 21.5 -0.1 15 13.9 SE 30 37 16 20 1013.0 1013.0 0.0
27/09:00am 27.2 19.2 0.1 17 12.7 SE 32 39 17 21 1013.2 1013.2 0.0
27/08:30am 25.3 17.0 0.0 19 11.7 SE 33 43 18 23 1013.2 1013.2 0.0
27/08:00am 23.1 14.5 0.2 22 10.4 SSE 35 44 19 24 1013.2 1013.2 0.0
27/07:30am 21.0 13.9 1.3 27 9.0 SSE 28 35 15 19 1013.1 1013.1 0.0
27/07:00am 18.7 12.1 2.1 33 7.6 S 26 33 14 18 1012.9 1012.9 0.0
27/06:30am 17.7 11.1 2.1 35 7.1 S 26 32 14 17 1012.6 1012.6 0.0
27/06:00am 17.1 10.9 1.9 36 6.8 S 24 32 13 17 1012.5 1012.5 0.0
27/05:30am 17.4 10.8 1.8 35 7.0 S 26 33 14 18 1012.3 1012.3 0.0
27/05:00am 17.7 11.3 1.2 33 7.3 S 24 32 13 17 1012.1 1012.1 0.0
27/04:30am 17.4 11.0 1.0 33 7.2 S 24 28 13 15 1012.1 1012.1 0.0
27/04:00am 17.6 11.1 0.3 31 7.5 S 24 30 13 16 1012.1 1012.1 0.0
27/03:30am 17.7 11.6 0.4 31 7.5 SSW 22 30 12 16 1012.1 1012.1 0.0
27/03:00am 18.0 11.9 0.2 30 7.8 SSW 22 28 12 15 1012.1 1012.1 0.0
27/02:30am 18.2 11.6 -0.6 28 8.1 SSW 24 30 13 16 1012.2 1012.2 0.0
27/02:00am 18.0 11.9 0.2 30 7.8 SSW 22 28 12 15 1012.2 1012.2 0.0
27/01:30am 18.8 12.2 -0.1 28 8.2 SSW 24 30 13 16 1012.5 1012.5 0.0
27/01:00am 18.7 12.1 -0.7 27 8.4 SSW 24 30 13 16 1012.7 1012.7 0.0
27/12:30am 18.7 12.5 -0.2 28 8.2 SSW 22 26 12 14 1012.8 1012.8 0.0
27/12:00am 18.7 13.1 -0.2 28 8.2 SSW 19 20 10 11 1012.9 1012.9 0.0
 
Date/Time
WST
Temp
°C
App
Temp
°C
Dew
Point
°C
Rel
Hum
%
Delta-T
°C
Wind Press
QNH
hPa
Press
MSL
hPa
Rain since
9am
mm
Dir  Spd
km/h
Gust
km/h
Spd
kts
Gust
kts
26/11:30pm 19.2 14.1 0.8 29 8.2 SSW 17 19 9 10 1013.1 1013.1 0.0
26/11:00pm 20.8 15.8 1.1 27 9.0 SSW 17 22 9 12 1013.3 1013.3 0.0
26/10:30pm 21.2 15.7 0.4 25 9.4 SSW 19 22 10 12 1013.1 1013.1 0.0
26/10:00pm 21.5 15.7 0.1 24 9.6 SSW 20 24 11 13 1013.2 1013.2 0.0
26/09:30pm 22.1 16.3 0.0 23 9.9 SSW 20 24 11 13 1013.2 1013.2 0.0
26/09:00pm 22.2 17.3 2.3 27 9.4 SSW 17 20 9 11 1013.0 1013.0 0.0
26/08:30pm 23.0 17.8 0.2 22 10.4 SSW 17 20 9 11 1012.8 1012.8 0.0
26/08:00pm 23.6 18.4 0.0 21 10.7 SSW 17 20 9 11 1012.3 1012.3 0.0
26/07:30pm 24.0 18.6 1.0 22 10.7 S 19 20 10 11 1012.0 1012.0 0.0
26/07:00pm 24.7 19.4 1.6 22 10.9 S 19 20 10 11 1011.8 1011.8 0.0
26/06:30pm 26.3 21.1 3.5 23 11.3 S 20 24 11 13 1011.4 1011.4 0.0
26/06:00pm 28.2 21.4 -1.8 14 13.7 S 24 30 13 16 1011.0 1011.0 0.0
26/05:30pm 29.5 22.5 -0.8 14 14.2 S 26 35 14 19 1010.8 1010.8 0.0
26/05:00pm 30.8 23.2 -5.7 9 15.9 SSE 26 35 14 19 1010.6 1010.6 0.0
26/04:30pm 31.4 24.2 -5.2 9 16.1 SSE 24 39 13 21 1010.6 1010.6 0.0
26/04:00pm 31.8 24.5 -6.5 8 16.6 SSE 24 35 13 19 1010.5 1010.5 0.0
26/03:30pm 32.2 24.2 -6.2 8 16.8 SSE 28 41 15 22 1010.5 1010.5 0.0
26/03:00pm 32.1 24.0 -6.3 8 16.7 SSE 28 39 15 21 1010.4 1010.4 0.0
26/02:40pm 32.2 24.3 -4.6 9 16.5 SSE 28 52 15 28 1010.3 1010.3 0.0
26/02:30pm 32.4 24.8 -6.0 8 16.8 SSE 26 35 14 19 1010.6 1010.6 0.0
26/02:00pm 32.1 24.2 -4.7 9 16.5 SE 28 39 15 21 1010.8 1010.8 0.0
26/01:30pm 32.2 24.3 -4.6 9 16.5 SSE 28 43 15 23 1011.2 1011.2 0.0
26/01:00pm 31.5 23.2 -5.2 9 16.2 SE 30 35 16 19 1011.6 1011.6 0.0
26/12:30pm 31.2 22.6 -4.0 10 15.8 SE 32 43 17 23 1012.2 1012.2 0.0
26/12:00pm 30.8 22.3 -3.0 11 15.4 SE 32 44 17 24 1012.6 1012.6 0.0
26/11:30am 29.9 20.0 -3.7 11 15.0 SE 39 50 21 27 1013.2 1013.2 0.0
26/11:00am 29.1 19.7 -3.2 12 14.5 SE 37 50 20 27 1013.6 1013.6 0.0
26/10:30am 28.0 18.8 -1.0 15 13.4 SE 37 50 20 27 1014.1 1014.1 0.0
26/10:00am 27.0 17.7 0.7 18 12.4 SE 39 50 21 27 1014.4 1014.4 0.0
26/09:30am 25.8 15.8 1.2 20 11.6 SE 43 52 23 28 1014.7 1014.7 0.0
26/09:00am 24.3 15.7 2.5 24 10.4 SSE 37 52 20 28 1014.9 1014.9 0.0
26/08:30am 22.0 14.3 5.4 34 8.3 SSE 35 43 19 23 1014.8 1014.8 0.0
26/08:00am 20.3 13.0 7.3 43 6.6 S 35 50 19 27 1014.6 1014.6 0.0
26/07:30am 18.4 10.9 8.1 51 5.3 S 37 44 20 24 1014.4 1014.4 0.0
26/07:00am 17.2 11.6 8.6 57 4.4 S 28 39 15 21 1014.2 1014.2 0.0
26/06:30am 15.8 10.6 9.0 64 3.5 SSW 26 32 14 17 1014.1 1014.1 0.0
26/06:00am 15.7 10.9 8.9 64 3.5 SSW 24 32 13 17 1013.9 1013.9 0.0
26/05:30am 16.2 10.6 8.9 62 3.7 SSW 28 37 15 20 1013.6 1013.6 0.0
26/05:00am 16.3 11.5 9.0 62 3.8 SSW 24 33 13 18 1013.4 1013.4 0.0
26/04:30am 16.4 11.2 8.9 61 3.9 SSW 26 33 14 18 1013.1 1013.1 0.0
26/04:00am 16.5 11.3 8.7 60 4.0 SSW 26 33 14 18 1013.0 1013.0 0.0
26/03:30am 16.7 11.9 8.7 59 4.1 SSW 24 30 13 16 1012.9 1012.9 0.0
26/03:00am 17.1 11.8 8.5 57 4.4 SSW 26 32 14 17 1013.0 1013.0 0.0
26/02:30am 17.3 12.0 8.4 56 4.6 SSW 26 32 14 17 1013.1 1013.1 0.0
26/02:00am 17.3 12.4 8.4 56 4.6 SSW 24 32 13 17 1013.3 1013.3 0.0
26/01:30am 17.5 12.2 8.4 55 4.7 SSW 26 33 14 18 1013.4 1013.4 0.0
26/01:00am 18.0 12.2 8.0 52 5.1 SSW 28 35 15 19 1013.5 1013.5 0.0
26/12:30am 18.2 12.0 7.9 51 5.3 SSW 30 39 16 21 1013.7 1013.7 0.0
26/12:00am 18.5 11.8 8.2 51 5.3 SSW 33 41 18 22 1013.8 1013.8 0.0
 
Date/Time
WST
Temp
°C
App
Temp
°C
Dew
Point
°C
Rel
Hum
%
Delta-T
°C
Wind Press
QNH
hPa
Press
MSL
hPa
Rain since
9am
mm
Dir  Spd
km/h
Gust
km/h
Spd
kts
Gust
kts
25/11:30pm 18.7 12.2 8.9 53 5.1 SSW 33 43 18 23 1014.0 1014.0 0.0
25/11:00pm 18.9 12.7 9.4 54 5.0 SW 32 43 17 23 1014.1 1014.1 0.0
25/10:30pm 19.1 12.8 9.6 54 5.0 SW 33 43 18 23 1014.0 1014.0 0.0
25/10:00pm 19.5 13.3 10.0 54 5.1 SW 33 43 18 23 1013.9 1013.9 0.0
25/09:30pm 19.9 13.9 10.0 53 5.3 SW 32 43 17 23 1013.7 1013.7 0.0
25/09:00pm 20.5 14.1 10.6 53 5.4 SW 35 48 19 26 1013.5 1013.5 0.0
25/08:30pm 20.9 14.5 10.7 52 5.6 SW 35 46 19 25 1013.1 1013.1 0.0
25/08:00pm 21.4 16.7 9.3 46 6.5 WSW 24 35 13 19 1012.8 1012.8 0.0
25/07:30pm 22.4 17.1 3.0 28 9.3 SW 20 22 11 12 1012.5 1012.5 0.0
25/07:00pm 23.0 18.4 3.5 28 9.4 SW 17 20 9 11 1012.2 1012.2 0.0
25/06:30pm 23.9 18.9 3.8 27 9.8 SW 19 24 10 13 1011.7 1011.7 0.0
25/06:00pm 25.5 19.3 2.2 22 11.2 SSW 24 30 13 16 1011.3 1011.3 0.0
25/05:30pm 26.4 20.1 1.7 20 11.8 SSW 24 32 13 17 1010.9 1010.9 0.0
25/05:00pm 27.1 21.2 1.5 19 12.3 SSW 22 33 12 18 1010.7 1010.7 0.0
25/04:30pm 27.7 21.1 2.0 19 12.5 SSW 26 35 14 19 1010.7 1010.7 0.0
25/04:00pm 28.0 21.7 1.5 18 12.8 SSW 24 30 13 16 1010.6 1010.6 0.0
25/03:30pm 27.7 20.7 2.0 19 12.5 SSW 28 39 15 21 1010.6 1010.6 0.0
25/03:00pm 28.1 21.8 1.6 18 12.9 SSW 24 33 13 18 1010.8 1010.8 0.0
25/02:30pm 27.8 22.2 1.3 18 12.7 SSW 20 30 11 16 1011.0 1011.0 0.0
25/02:00pm 27.9 21.8 2.9 20 12.4 SW 24 35 13 19 1011.5 1011.5 0.0
25/01:30pm 27.3 20.8 2.4 20 12.2 SSW 26 37 14 20 1011.9 1011.9 0.0
25/01:00pm 27.6 21.1 2.6 20 12.3 SSW 26 37 14 20 1012.4 1012.4 0.0
25/12:30pm 26.6 20.2 3.2 22 11.5 SSW 26 39 14 21 1012.8 1012.8 0.0
25/12:00pm 26.3 19.2 3.5 23 11.3 S 30 44 16 24 1013.2 1013.2 0.0
25/11:30am 26.0 19.5 4.5 25 10.8 S 28 37 15 20 1013.6 1013.6 0.0
25/11:00am 24.4 17.6 5.2 29 9.7 S 30 44 16 24 1014.1 1014.1 0.0
25/10:30am 24.4 17.3 5.7 30 9.5 SSW 32 39 17 21 1014.3 1014.3 0.0
25/10:00am 22.7 15.4 5.6 33 8.6 S 33 43 18 23 1014.4 1014.4 0.0
25/09:30am 22.0 14.0 5.8 35 8.1 S 37 48 20 26 1014.8 1014.8 0.0
25/09:00am 20.7 12.1 6.3 39 7.2 S 41 52 22 28 1014.9 1014.9 0.0
25/08:30am 19.2 10.6 6.7 44 6.3 S 41 50 22 27 1014.9 1014.9 0.0
25/08:00am 18.2 10.5 7.3 49 5.5 S 37 48 20 26 1014.8 1014.8 0.0
25/07:30am 16.7 9.9 7.6 55 4.6 S 33 44 18 24 1014.6 1014.6 0.0
25/07:00am 15.5 8.9 7.8 60 3.8 SSW 32 41 17 22 1014.3 1014.3 0.0
25/06:30am 14.7 8.8 7.7 63 3.5 SSW 28 35 15 19 1014.2 1014.2 0.0
25/06:00am 14.5 8.6 7.5 63 3.5 SSW 28 33 15 18 1013.9 1013.9 0.0
25/05:30am 14.7 9.5 7.3 61 3.6 SSW 24 33 13 18 1013.6 1013.6 0.0
25/05:00am 14.8 9.6 7.1 60 3.8 SSW 24 32 13 17 1013.2 1013.2 0.0
25/04:30am 15.1 9.4 6.7 57 4.1 SSW 26 32 14 17 1013.0 1013.0 0.0
25/04:00am 15.4 9.6 6.2 54 4.4 SSW 26 33 14 18 1012.8 1012.8 0.0
25/03:30am 15.5 10.1 6.2 54 4.5 SSW 24 30 13 16 1012.8 1012.8 0.0
25/03:00am 15.7 10.3 6.4 54 4.5 SSW 24 28 13 15 1012.7 1012.7 0.0
25/02:30am 16.2 11.2 6.3 52 4.8 SSW 22 28 12 15 1012.7 1012.7 0.0
25/02:00am 16.5 11.2 6.6 52 4.9 SSW 24 28 13 15 1012.7 1012.7 0.0
25/01:30am 16.7 12.2 6.8 52 4.9 SSW 20 26 11 14 1012.7 1012.7 0.0
25/01:00am 17.2 12.7 7.0 51 5.1 SSW 20 26 11 14 1012.8 1012.8 0.0
25/12:30am 17.6 12.7 7.1 50 5.2 SSW 22 30 12 16 1012.7 1012.7 0.0
25/12:00am 18.0 13.8 8.3 53 5.0 SW 20 28 11 15 1012.7 1012.7 0.0

Other Formats:

Comma delimited format used in spreadsheet applications
http://www.bom.gov.au/fwo/IDW60801/IDW60801.95305.axf

JavaScript Object Notation format (JSON) in row-major order
http://www.bom.gov.au/fwo/IDW60801/IDW60801.95305.json